Time;durP1;ratioP1;P1;durP2;ratioP2;P2;SDS_P1;SDS_P2;PMS_P1;PMS_P2;Temp;Humidity;BMP_temperature;BMP_pressure;BME280_temperature;BME280_humidity;BME280_pressure;Samples;Min_cycle;Max_cycle;Signal;HPM_P1;HPM_P2
2023/02/09 00:02:11;;;;;;;4.50;4.20;;;-3.50;97.30;;;;;;5017029;28;20608;-84
2023/02/09 00:04:36;;;;;;;16.13;9.10;;;-3.60;97.30;;;;;;5016553;28;20182;-87
2023/02/09 00:07:02;;;;;;;5.63;5.13;;;-3.60;97.30;;;;;;5016780;28;20184;-88
2023/02/09 00:09:28;;;;;;;8.33;5.30;;;-3.70;97.30;;;;;;5014814;28;20669;-87
2023/02/09 00:14:38;;;;;;;8.90;7.53;;;-3.80;97.30;;;;;;5033606;28;20824;-87
2023/02/09 00:17:04;;;;;;;22.37;6.53;;;-3.90;97.30;;;;;;5033199;28;20443;-87
2023/02/09 00:19:30;;;;;;;32.00;5.27;;;-3.90;97.30;;;;;;5015517;28;20588;-85
2023/02/09 00:21:56;;;;;;;15.93;5.13;;;-3.90;97.30;;;;;;5015446;28;20431;-87
2023/02/09 00:24:22;;;;;;;12.53;8.80;;;-3.90;97.30;;;;;;5014594;28;20423;-87
2023/02/09 00:26:47;;;;;;;13.30;5.17;;;-3.90;97.30;;;;;;5014554;28;20439;-87
2023/02/09 00:29:13;;;;;;;11.57;6.77;;;-3.90;97.30;;;;;;5014283;28;20180;-87
2023/02/09 00:31:39;;;;;;;3.77;3.53;;;-3.90;97.30;;;;;;5013986;28;20258;-87
2023/02/09 00:34:05;;;;;;;10.87;6.67;;;-3.90;97.30;;;;;;5013956;28;20475;-86
2023/02/09 00:36:31;;;;;;;5.70;5.40;;;-4.00;97.30;;;;;;5013715;28;20700;-86
2023/02/09 00:38:57;;;;;;;4.70;4.40;;;-4.00;97.30;;;;;;5014400;28;20415;-87
2023/02/09 00:44:08;;;;;;;8.60;8.10;;;-4.10;97.30;;;;;;5024762;28;20409;-86
2023/02/09 00:46:33;;;;;;;4.50;4.20;;;-4.10;97.30;;;;;;5014116;28;20945;-86
2023/02/09 00:48:59;;;;;;;5.97;4.27;;;-4.20;97.30;;;;;;5014315;28;20430;-86
2023/02/09 00:51:24;;;;;;;10.57;5.83;;;-4.20;97.30;;;;;;5032297;28;20255;-86
2023/02/09 00:53:49;;;;;;;7.80;5.20;;;-4.30;97.30;;;;;;5013026;28;20215;-87
2023/02/09 00:56:15;;;;;;;6.77;6.40;;;-4.30;97.30;;;;;;5013603;28;20625;-86
2023/02/09 00:58:40;;;;;;;5.47;5.10;;;-4.40;97.30;;;;;;5013221;28;20176;-86
2023/02/09 01:01:12;;;;;;;6.60;5.77;;;-4.40;97.30;;;;;;5013512;28;20655;-86
2023/02/09 01:03:40;;;;;;;3.43;3.23;;;-4.40;97.30;;;;;;5013739;28;20184;-86
2023/02/09 01:06:06;;;;;;;5.87;5.63;;;-4.50;97.30;;;;;;5013415;28;20505;-86
2023/02/09 01:08:31;;;;;;;2.77;2.57;;;-4.50;97.30;;;;;;5012398;28;20408;-86
2023/02/09 01:10:57;;;;;;;7.00;4.73;;;-4.50;97.30;;;;;;5012574;28;20170;-86
2023/02/09 01:13:22;;;;;;;8.07;4.90;;;-4.60;97.30;;;;;;5012857;28;20895;-86
2023/02/09 01:15:48;;;;;;;6.17;5.83;;;-4.60;97.30;;;;;;5012992;28;20201;-86
2023/02/09 01:18:13;;;;;;;4.33;4.07;;;-4.70;97.30;;;;;;5012962;28;20180;-86
2023/02/09 01:20:40;;;;;;;11.97;4.80;;;-4.70;97.30;;;;;;5014865;28;20177;-87
2023/02/09 01:23:06;;;;;;;4.07;1.93;;;-4.70;97.30;;;;;;5016960;28;20218;-86
2023/02/09 01:25:31;;;;;;;12.80;7.80;;;-4.80;97.30;;;;;;5016934;28;20470;-87
2023/02/09 01:27:57;;;;;;;8.37;4.83;;;-4.80;97.30;;;;;;5034390;28;20185;-88
2023/02/09 01:30:31;;;;;;;5.17;4.67;;;-4.80;97.30;;;;;;5017674;28;20208;-86
2023/02/09 01:32:56;;;;;;;4.87;4.47;;;-4.80;97.30;;;;;;5035005;28;20272;-87
2023/02/09 01:35:28;;;;;;;8.27;4.53;;;-4.80;97.30;;;;;;5017458;28;20944;-87
2023/02/09 01:37:56;;;;;;;8.93;7.73;;;-4.90;97.30;;;;;;5016766;28;20217;-87
2023/02/09 01:40:57;;;;;;;;;;;;;;;;;;;;;
2023/02/09 01:54:10;;;;;;;;;;;;;;;;;;;;;
2023/02/09 01:56:47;;;;;;;5.40;4.80;;;-5.20;97.30;;;;;;4905268;29;20460;-86
2023/02/09 02:00:07;;;;;;;5.70;2.33;;;-5.30;97.30;;;;;;4900337;29;20938;-87
2023/02/09 02:02:46;;;;;;;2.23;2.03;;;-5.30;97.30;;;;;;4914665;29;20425;-87
2023/02/09 02:05:36;;;;;;;7.20;5.10;;;-5.30;97.30;;;;;;4922994;29;20459;-86
2023/02/09 02:08:23;;;;;;;4.60;4.30;;;-5.40;97.30;;;;;;4934533;28;20424;-87
2023/02/09 02:10:57;;;;;;;7.87;4.77;;;-5.40;97.30;;;;;;4996638;28;21044;-86
2023/02/09 02:13:46;;;;;;;2.73;2.53;;;-5.40;97.30;;;;;;4996705;28;21030;-87
2023/02/09 02:17:34;;;;;;;4.97;4.60;;;-5.50;97.30;;;;;;4989530;28;20443;-88
2023/02/09 02:20:14;;;;;;;3.80;2.60;;;-5.50;97.30;;;;;;5007967;28;20514;-87
2023/02/09 02:25:57;;;;;;;2.40;2.20;;;-5.60;97.30;;;;;;5003538;28;20450;-87
2023/02/09 02:28:31;;;;;;;7.23;4.03;;;-5.60;97.30;;;;;;4992023;28;20423;-88
2023/02/09 02:31:39;;;;;;;10.47;8.40;;;-5.70;97.30;;;;;;4997236;28;20430;-87
2023/02/09 02:34:20;;;;;;;10.40;7.17;;;-5.70;97.30;;;;;;5013948;28;20552;-87
2023/02/09 02:37:37;;;;;;;9.40;3.40;;;-5.70;97.30;;;;;;4992650;28;20439;-86
2023/02/09 02:40:29;;;;;;;7.37;5.90;;;-5.80;97.30;;;;;;4944780;28;20506;-87
2023/02/09 02:43:09;;;;;;;5.33;3.33;;;-5.80;97.30;;;;;;4994467;28;20423;-87
2023/02/09 02:45:44;;;;;;;3.23;2.43;;;-5.80;97.30;;;;;;4996339;28;20965;-87
2023/02/09 02:48:22;;;;;;;5.93;5.20;;;-5.80;97.30;;;;;;4998713;28;20438;-86
2023/02/09 02:51:28;;;;;;;8.17;5.20;;;-5.90;97.30;;;;;;4996293;28;20427;-87
2023/02/09 02:53:58;;;;;;;10.20;4.80;;;-6.00;97.30;;;;;;4917465;29;20474;-87
2023/02/09 02:56:29;;;;;;;4.20;3.93;;;-6.00;97.30;;;;;;4984834;28;20447;-87
2023/02/09 02:58:58;;;;;;;5.87;4.00;;;-6.10;97.30;;;;;;4996276;28;20439;-87
2023/02/09 03:01:28;;;;;;;2.83;2.60;;;-6.20;97.30;;;;;;4996453;28;20431;-86
2023/02/09 03:03:55;;;;;;;4.27;4.00;;;-6.30;97.30;;;;;;4995769;28;20447;-87
2023/02/09 03:06:20;;;;;;;4.10;3.90;;;-6.40;97.30;;;;;;4995456;28;20491;-88
2023/02/09 03:08:54;;;;;;;9.27;3.67;;;-6.40;97.30;;;;;;5013773;28;20471;-87
2023/02/09 03:11:23;;;;;;;8.67;7.37;;;-6.40;97.30;;;;;;4995986;28;20235;-86
2023/02/09 03:14:15;;;;;;;2.60;2.40;;;-6.30;97.30;;;;;;5013308;28;20522;-87
2023/02/09 03:16:50;;;;;;;8.33;4.40;;;-6.30;97.30;;;;;;4996192;28;20525;-88
2023/02/09 03:19:32;;;;;;;3.27;3.07;;;-6.20;97.30;;;;;;4996131;28;20429;-87
2023/02/09 03:22:17;;;;;;;6.10;4.13;;;-6.20;97.30;;;;;;4996012;28;20423;-87
2023/02/09 03:24:52;;;;;;;2.90;2.70;;;-6.20;97.30;;;;;;5011550;28;20878;-86
2023/02/09 03:27:30;;;;;;;3.13;2.93;;;-6.20;97.30;;;;;;4995191;28;20430;-88
2023/02/09 03:29:59;;;;;;;4.70;4.40;;;-6.10;97.30;;;;;;4995563;28;20431;-87
2023/02/09 03:32:26;;;;;;;4.17;3.93;;;-6.20;97.30;;;;;;4995606;28;20556;-87
2023/02/09 03:34:53;;;;;;;5.77;5.47;;;-6.20;97.30;;;;;;4994839;28;20452;-87
2023/02/09 03:37:19;;;;;;;6.47;4.70;;;-6.20;97.30;;;;;;5012567;28;20426;-87
2023/02/09 03:39:44;;;;;;;9.10;4.80;;;-6.20;97.30;;;;;;5011801;28;20435;-88
2023/02/09 03:42:10;;;;;;;3.90;3.70;;;-6.20;97.30;;;;;;4994583;28;20270;-88
2023/02/09 03:44:35;;;;;;;8.17;6.03;;;-6.30;97.30;;;;;;5012432;28;20196;-88
2023/02/09 03:47:04;;;;;;;4.70;4.20;;;-6.30;97.30;;;;;;4994722;28;20654;-87
2023/02/09 03:49:38;;;;;;;2.30;2.10;;;-6.30;97.30;;;;;;4994761;28;20211;-88
2023/02/09 03:52:04;;;;;;;5.43;3.33;;;-6.30;97.30;;;;;;5003553;28;20502;-88
2023/02/09 03:54:31;;;;;;;4.80;4.50;;;-6.30;97.30;;;;;;5001452;28;20461;-88
2023/02/09 03:56:57;;;;;;;1.83;1.73;;;-6.30;97.30;;;;;;5032102;28;20594;-88
2023/02/09 03:59:24;;;;;;;3.17;2.97;;;-6.20;97.30;;;;;;5014477;28;20425;-87
2023/02/09 04:01:51;;;;;;;6.00;5.37;;;-6.10;97.30;;;;;;5012531;28;20501;-87
2023/02/09 04:04:17;;;;;;;3.10;2.90;;;-6.00;97.30;;;;;;5031420;28;20429;-86
2023/02/09 04:06:43;;;;;;;6.43;6.07;;;-6.00;97.30;;;;;;5014023;28;20442;-87
2023/02/09 04:09:12;;;;;;;5.63;3.03;;;-5.90;97.30;;;;;;5013591;28;20429;-88
2023/02/09 04:11:37;;;;;;;9.23;4.93;;;-5.90;97.30;;;;;;5014066;28;20209;-87
2023/02/09 04:14:04;;;;;;;5.07;3.17;;;-5.90;97.30;;;;;;5014080;28;20497;-87
2023/02/09 04:16:30;;;;;;;12.77;7.53;;;-6.00;97.30;;;;;;5013909;28;20566;-87
2023/02/09 04:18:56;;;;;;;13.00;2.60;;;-6.00;97.30;;;;;;5031498;28;20904;-88
2023/02/09 04:21:21;;;;;;;11.97;4.33;;;-6.10;97.30;;;;;;5012335;28;20516;-86
2023/02/09 04:23:47;;;;;;;5.30;3.20;;;-6.20;97.30;;;;;;5003674;28;20180;-87
2023/02/09 04:26:13;;;;;;;2.47;2.27;;;-6.30;97.30;;;;;;5030085;28;20688;-87
2023/02/09 04:28:38;;;;;;;3.90;3.70;;;-6.30;97.30;;;;;;5012947;28;20198;-89
2023/02/09 04:31:04;;;;;;;2.53;2.33;;;-6.30;97.30;;;;;;5013905;28;20434;-87
2023/02/09 04:33:30;;;;;;;4.77;4.23;;;-6.30;97.30;;;;;;5013853;28;20192;-87
2023/02/09 04:35:55;;;;;;;12.07;3.43;;;-6.30;97.30;;;;;;5014264;28;20236;-87
2023/02/09 04:38:22;;;;;;;8.50;5.00;;;-6.20;97.30;;;;;;5031182;28;20629;-87
2023/02/09 04:40:49;;;;;;;6.80;3.40;;;-6.20;97.30;;;;;;5013973;28;20184;-86
2023/02/09 04:43:15;;;;;;;4.87;4.57;;;-6.20;97.30;;;;;;5013125;28;20517;-87
2023/02/09 04:45:41;;;;;;;8.60;4.27;;;-6.10;97.30;;;;;;5014185;28;20482;-86
2023/02/09 04:48:12;;;;;;;3.80;3.00;;;-6.10;97.30;;;;;;5012038;28;20458;-87
2023/02/09 04:50:37;;;;;;;4.23;3.97;;;-6.10;97.30;;;;;;5014053;28;20431;-87
2023/02/09 04:53:03;;;;;;;5.63;5.33;;;-6.10;97.30;;;;;;5033715;28;20458;-86
2023/02/09 04:55:28;;;;;;;6.80;6.00;;;-6.10;97.30;;;;;;5020961;28;20219;-89
2023/02/09 05:00:38;;;;;;;4.20;2.80;;;-6.20;97.30;;;;;;5040069;28;20290;-86
2023/02/09 05:03:03;;;;;;;4.73;3.83;;;-6.20;97.30;;;;;;5018430;28;20904;-86
2023/02/09 05:05:29;;;;;;;3.10;2.90;;;-6.30;97.30;;;;;;5022436;28;20221;-88
2023/02/09 05:07:55;;;;;;;3.60;3.40;;;-6.40;97.30;;;;;;5039396;28;20169;-90
2023/02/09 05:10:20;;;;;;;4.33;4.03;;;-6.50;97.30;;;;;;5033315;28;20225;-89
2023/02/09 05:12:46;;;;;;;9.73;2.90;;;-6.50;97.30;;;;;;5041644;28;20226;-89
2023/02/09 05:15:12;;;;;;;4.33;3.67;;;-6.50;97.30;;;;;;5058445;28;20271;-89
2023/02/09 05:17:38;;;;;;;3.33;3.13;;;-6.50;97.30;;;;;;5022468;28;20409;-86
2023/02/09 05:20:04;;;;;;;2.00;1.90;;;-6.50;97.30;;;;;;5015337;28;20473;-87
2023/02/09 05:22:29;;;;;;;4.50;4.20;;;-6.50;97.30;;;;;;5017630;28;20180;-87
2023/02/09 05:24:55;;;;;;;8.27;5.67;;;-6.50;97.30;;;;;;5018227;28;20823;-86
2023/02/09 05:27:20;;;;;;;6.07;5.73;;;-6.60;97.30;;;;;;5017415;28;20196;-86
2023/02/09 05:29:46;;;;;;;1.50;1.40;;;-6.50;97.30;;;;;;5018132;28;20182;-86
2023/02/09 05:32:11;;;;;;;2.37;2.10;;;-6.60;97.30;;;;;;5035295;28;20329;-86
2023/02/09 05:34:37;;;;;;;6.73;4.40;;;-6.60;97.30;;;;;;5017855;28;20629;-86
2023/02/09 05:37:02;;;;;;;4.00;3.37;;;-6.60;97.30;;;;;;5018432;28;20242;-86
2023/02/09 05:39:28;;;;;;;2.63;2.40;;;-6.60;97.30;;;;;;5019298;28;20649;-86
2023/02/09 05:44:37;;;;;;;4.00;3.17;;;-6.70;97.30;;;;;;5036622;28;20569;-87
2023/02/09 05:47:03;;;;;;;3.27;3.07;;;-6.70;97.30;;;;;;5018751;28;20426;-85
2023/02/09 05:49:29;;;;;;;5.23;3.50;;;-6.60;97.30;;;;;;5016915;28;20179;-87
2023/02/09 05:51:54;;;;;;;4.23;2.87;;;-6.60;97.30;;;;;;5017212;28;20195;-86
2023/02/09 05:54:20;;;;;;;2.83;2.43;;;-6.60;97.30;;;;;;5017795;28;20227;-86
2023/02/09 05:56:45;;;;;;;2.77;2.53;;;-6.50;97.30;;;;;;5017074;28;20241;-85
2023/02/09 05:59:11;;;;;;;5.83;3.50;;;-6.40;97.30;;;;;;5015843;28;20238;-86
2023/02/09 06:01:36;;;;;;;3.07;2.87;;;-6.40;97.30;;;;;;5034169;28;20192;-87
2023/02/09 06:04:02;;;;;;;7.20;2.70;;;-6.40;97.30;;;;;;5016074;28;20210;-86
2023/02/09 06:06:28;;;;;;;2.90;2.70;;;-6.30;97.30;;;;;;5014699;28;20286;-86
2023/02/09 06:08:53;;;;;;;2.23;2.03;;;-6.30;97.30;;;;;;5015766;28;20182;-86
2023/02/09 06:11:19;;;;;;;3.13;2.80;;;-6.40;97.30;;;;;;5015933;28;20647;-87
2023/02/09 06:13:44;;;;;;;2.47;2.27;;;-6.40;97.30;;;;;;5009304;28;20211;-87
2023/02/09 06:16:10;;;;;;;7.37;5.17;;;-6.40;97.30;;;;;;5034647;28;20314;-87
2023/02/09 06:18:37;;;;;;;5.10;2.97;;;-6.40;97.30;;;;;;5034910;28;20192;-86
2023/02/09 06:21:03;;;;;;;2.03;1.90;;;-6.40;97.30;;;;;;5016751;28;20686;-86
2023/02/09 06:23:28;;;;;;;5.53;3.37;;;-6.40;97.30;;;;;;5016975;28;20438;-86
2023/02/09 06:25:54;;;;;;;6.97;2.97;;;-6.40;97.30;;;;;;5018071;28;20466;-87
2023/02/09 06:28:19;;;;;;;1.80;1.70;;;-6.40;97.30;;;;;;5033965;28;20175;-86
2023/02/09 06:30:49;;;;;;;9.30;2.57;;;-6.40;97.30;;;;;;5016413;28;20214;-88
2023/02/09 06:33:16;;;;;;;4.53;4.20;;;-6.40;97.30;;;;;;5010528;28;20587;-87
2023/02/09 06:35:41;;;;;;;8.03;4.77;;;-6.40;97.30;;;;;;5016165;28;20433;-87
2023/02/09 06:38:07;;;;;;;2.67;2.53;;;-6.40;97.30;;;;;;5016617;28;20497;-87
2023/02/09 06:40:32;;;;;;;3.67;2.90;;;-6.50;97.30;;;;;;5016748;28;20268;-87
2023/02/09 06:42:58;;;;;;;4.57;4.27;;;-6.60;97.30;;;;;;5016611;28;20187;-85
2023/02/09 06:45:23;;;;;;;8.13;4.33;;;-6.60;97.30;;;;;;5016594;28;20217;-87
2023/02/09 06:47:49;;;;;;;5.67;3.90;;;-6.60;97.30;;;;;;5017112;28;20354;-86
2023/02/09 06:50:16;;;;;;;5.00;4.70;;;-6.60;97.30;;;;;;5034372;28;20183;-87
2023/02/09 06:52:42;;;;;;;2.43;2.23;;;-6.50;97.30;;;;;;5016679;28;20199;-87
2023/02/09 06:55:08;;;;;;;3.27;3.07;;;-6.50;97.30;;;;;;5015811;28;20469;-86
2023/02/09 06:57:36;;;;;;;7.57;4.43;;;-6.40;97.30;;;;;;5017355;28;20916;-88
2023/02/09 07:00:04;;;;;;;2.43;2.23;;;-6.40;97.30;;;;;;5016723;28;20422;-86
2023/02/09 07:02:29;;;;;;;10.10;5.07;;;-6.40;97.30;;;;;;5034559;28;20457;-87
2023/02/09 07:04:56;;;;;;;12.13;4.13;;;-6.40;97.30;;;;;;5018046;28;20445;-87
2023/02/09 07:07:22;;;;;;;7.40;3.20;;;-6.50;97.30;;;;;;5016297;28;20652;-87
2023/02/09 07:09:47;;;;;;;3.50;3.00;;;-6.60;97.30;;;;;;5015811;28;20429;-87
2023/02/09 07:12:13;;;;;;;4.90;4.60;;;-6.70;97.30;;;;;;5015566;28;20569;-87
2023/02/09 07:14:38;;;;;;;4.00;2.13;;;-6.70;97.30;;;;;;5016368;28;20187;-87
2023/02/09 07:17:04;;;;;;;3.70;3.00;;;-6.70;97.30;;;;;;5016209;28;20191;-87
2023/02/09 07:19:29;;;;;;;3.90;2.90;;;-6.60;97.30;;;;;;5016274;28;20195;-87
2023/02/09 07:21:55;;;;;;;4.70;3.47;;;-6.40;97.30;;;;;;5016271;28;20189;-86
2023/02/09 07:24:20;;;;;;;5.03;3.33;;;-6.30;97.30;;;;;;5017176;28;20188;-86
2023/02/09 07:26:46;;;;;;;7.90;2.50;;;-6.20;97.30;;;;;;5017057;28;20749;-86
2023/02/09 07:29:11;;;;;;;9.20;2.97;;;-6.00;97.30;;;;;;5016165;28;20764;-86
2023/02/09 07:31:37;;;;;;;1.83;1.73;;;-5.80;97.30;;;;;;5018614;28;20179;-86
2023/02/09 07:34:02;;;;;;;2.90;2.70;;;-5.70;97.30;;;;;;5016261;28;20212;-90
2023/02/09 07:36:28;;;;;;;3.77;3.17;;;-5.50;97.30;;;;;;5015183;28;20199;-86
2023/02/09 07:38:54;;;;;;;3.50;1.97;;;-5.40;97.30;;;;;;5015435;28;20543;-87
2023/02/09 07:41:25;;;;;;;1.83;1.70;;;-5.20;97.30;;;;;;5014472;28;20180;-87
2023/02/09 07:43:51;;;;;;;2.60;2.40;;;-5.10;97.30;;;;;;5015072;28;20766;-85
2023/02/09 07:46:19;;;;;;;3.03;2.80;;;-5.00;97.30;;;;;;5015151;28;20446;-87
2023/02/09 07:48:46;;;;;;;8.00;3.90;;;-4.80;97.30;;;;;;5014982;28;20817;-87
2023/02/09 07:51:18;;;;;;;6.03;2.50;;;-4.70;97.30;;;;;;5014496;28;20445;-87
2023/02/09 07:53:44;;;;;;;2.77;2.53;;;-4.60;97.30;;;;;;5014510;28;20475;-87
2023/02/09 07:56:10;;;;;;;3.67;3.47;;;-4.50;97.30;;;;;;5014382;28;20935;-87
2023/02/09 07:58:35;;;;;;;3.63;2.73;;;-4.40;97.30;;;;;;5032099;28;20472;-87
2023/02/09 08:01:06;;;;;;;2.27;2.07;;;-4.30;97.30;;;;;;5014242;28;20263;-86
2023/02/09 08:03:34;;;;;;;2.80;2.50;;;-4.20;97.30;;;;;;5015223;28;20188;-87
2023/02/09 08:06:17;;;;;;;11.03;1.90;;;-4.10;97.30;;;;;;5015305;28;20454;-87
2023/02/09 08:08:44;;;;;;;6.33;2.97;;;-3.90;97.30;;;;;;5014909;28;20418;-87
2023/02/09 08:11:10;;;;;;;11.57;3.20;;;-3.80;97.30;;;;;;5015293;28;20520;-87
2023/02/09 08:13:36;;;;;;;2.97;2.77;;;-3.70;97.30;;;;;;5015230;28;20992;-88
2023/02/09 08:16:04;;;;;;;2.07;1.93;;;-3.60;97.30;;;;;;5015139;28;20921;-87
2023/02/09 08:18:41;;;;;;;8.00;4.13;;;-3.50;97.30;;;;;;5014798;28;21011;-88
2023/02/09 08:21:10;;;;;;;3.43;2.73;;;-3.40;97.30;;;;;;5014616;28;20514;-86
2023/02/09 08:23:36;;;;;;;7.43;2.63;;;-3.20;97.30;;;;;;5014526;28;20429;-86
2023/02/09 08:26:09;;;;;;;2.63;2.43;;;-3.10;97.30;;;;;;5014274;28;20467;-87
2023/02/09 08:28:35;;;;;;;2.50;2.00;;;-3.00;97.30;;;;;;5014590;28;20235;-87
2023/02/09 08:31:01;;;;;;;3.50;3.03;;;-2.80;97.30;;;;;;5013587;28;20415;-88
2023/02/09 08:33:26;;;;;;;2.07;1.93;;;-2.70;97.30;;;;;;5031868;28;21043;-87
2023/02/09 08:35:52;;;;;;;4.37;1.70;;;-2.60;97.30;;;;;;5014344;28;20190;-86
2023/02/09 08:38:18;;;;;;;2.90;2.70;;;-2.50;97.30;;;;;;5014232;28;20183;-86
2023/02/09 08:40:44;;;;;;;14.60;5.80;;;-2.30;97.30;;;;;;5014284;28;20169;-86
2023/02/09 08:43:11;;;;;;;4.03;3.83;;;-2.30;97.30;;;;;;5013663;28;20415;-86
2023/02/09 08:45:39;;;;;;;3.37;3.17;;;-2.20;97.30;;;;;;5031529;28;20482;-86
2023/02/09 08:48:11;;;;;;;3.47;2.53;;;-2.10;97.30;;;;;;5013646;28;20580;-86
2023/02/09 08:50:37;;;;;;;3.40;2.90;;;-2.00;97.30;;;;;;5014007;28;20411;-86
2023/02/09 08:53:03;;;;;;;3.90;2.97;;;-1.90;97.30;;;;;;4999466;28;20533;-87
2023/02/09 08:55:30;;;;;;;2.97;2.77;;;-1.90;97.30;;;;;;5013436;28;20558;-86
2023/02/09 08:57:55;;;;;;;2.23;2.07;;;-1.70;97.30;;;;;;4999844;28;20439;-86
2023/02/09 09:00:21;;;;;;;3.30;3.13;;;-1.60;97.30;;;;;;5001916;28;20802;-86
2023/02/09 09:02:46;;;;;;;2.97;2.77;;;-1.60;97.30;;;;;;4999702;28;20188;-87
2023/02/09 09:05:13;;;;;;;2.00;1.90;;;-1.50;97.30;;;;;;5011191;28;20231;-86
2023/02/09 09:07:38;;;;;;;3.60;3.40;;;-1.40;97.30;;;;;;5014635;28;20218;-86
2023/02/09 09:10:05;;;;;;;1.73;1.63;;;-1.30;97.30;;;;;;5012792;28;20416;-86
2023/02/09 09:12:30;;;;;;;2.40;2.20;;;-1.20;97.30;;;;;;4995522;28;20201;-86
2023/02/09 09:14:56;;;;;;;4.30;2.70;;;-1.10;97.10;;;;;;5003748;28;20443;-86
2023/02/09 09:17:21;;;;;;;7.50;4.23;;;-1.10;96.80;;;;;;4995125;28;20205;-86
2023/02/09 09:19:47;;;;;;;2.83;2.63;;;-1.10;96.10;;;;;;4994835;28;20196;-86
2023/02/09 09:22:12;;;;;;;1.57;1.47;;;-1.00;96.00;;;;;;4994836;28;20284;-86
2023/02/09 09:24:39;;;;;;;3.00;2.80;;;-1.00;96.00;;;;;;4994841;28;20173;-86
2023/02/09 09:27:06;;;;;;;2.50;1.70;;;-0.80;96.50;;;;;;5013945;28;20177;-88
2023/02/09 09:29:33;;;;;;;2.50;2.30;;;-0.70;95.90;;;;;;5010004;28;20431;-85
2023/02/09 09:31:59;;;;;;;2.80;2.60;;;-0.70;94.90;;;;;;4995016;28;20519;-86
2023/02/09 09:34:25;;;;;;;1.87;1.77;;;-0.60;95.10;;;;;;4994375;28;20502;-86
2023/02/09 09:36:50;;;;;;;2.33;2.17;;;-0.50;95.20;;;;;;4994107;28;20484;-86
2023/02/09 09:39:17;;;;;;;18.33;4.87;;;-0.40;94.90;;;;;;5009934;28;20173;-86
2023/02/09 09:41:49;;;;;;;5.30;1.63;;;-0.20;95.30;;;;;;5002029;28;20184;-85
2023/02/09 09:44:23;;;;;;;2.67;2.47;;;-0.10;94.90;;;;;;5000883;28;20481;-86
2023/02/09 09:46:51;;;;;;;3.33;3.13;;;-0.10;94.30;;;;;;5002017;28;20450;-86
2023/02/09 09:49:23;;;;;;;2.37;2.03;;;0.00;94.20;;;;;;5016068;28;20431;-86
2023/02/09 09:51:58;;;;;;;3.17;1.70;;;0.00;93.30;;;;;;5009526;28;20455;-85
2023/02/09 09:54:28;;;;;;;6.53;3.07;;;0.10;93.00;;;;;;5001251;28;20532;-86
2023/02/09 09:56:54;;;;;;;2.60;2.27;;;0.10;92.90;;;;;;5034714;28;20438;-86
2023/02/09 09:59:24;;;;;;;1.50;1.40;;;0.10;92.40;;;;;;5016952;28;20431;-87
2023/02/09 10:01:51;;;;;;;3.93;1.67;;;0.20;92.60;;;;;;5016663;28;20191;-86
2023/02/09 10:04:19;;;;;;;3.97;3.13;;;0.30;93.00;;;;;;5017091;28;20625;-87
2023/02/09 10:06:49;;;;;;;3.63;3.43;;;0.40;92.50;;;;;;5016745;28;20461;-86
2023/02/09 10:09:42;;;;;;;2.27;1.73;;;0.40;91.70;;;;;;5016689;28;20438;-86
2023/02/09 10:12:28;;;;;;;3.07;2.80;;;0.50;91.80;;;;;;5016989;28;20607;-86
2023/02/09 10:14:54;;;;;;;2.17;2.00;;;0.60;91.70;;;;;;5017051;28;20517;-86
2023/02/09 10:17:19;;;;;;;2.27;2.07;;;0.80;91.10;;;;;;5016487;28;20466;-86
2023/02/09 10:20:00;;;;;;;9.93;3.27;;;0.90;90.10;;;;;;5017040;28;20184;-86
2023/02/09 10:22:25;;;;;;;1.83;1.73;;;0.90;89.60;;;;;;5009276;28;20203;-86
2023/02/09 10:24:51;;;;;;;2.43;2.23;;;1.00;90.00;;;;;;5015230;28;20431;-86
2023/02/09 10:27:20;;;;;;;3.77;3.57;;;1.20;89.70;;;;;;5014998;28;20569;-87
2023/02/09 10:29:46;;;;;;;1.50;1.40;;;1.20;88.90;;;;;;5016125;28;20424;-86
2023/02/09 10:32:17;;;;;;;4.53;4.23;;;1.30;88.20;;;;;;5016393;28;20442;-86
2023/02/09 10:34:45;;;;;;;2.33;2.13;;;1.30;88.00;;;;;;5016033;28;20430;-85
2023/02/09 10:37:31;;;;;;;5.13;2.53;;;1.40;87.80;;;;;;5016810;28;20423;-86
2023/02/09 10:40:12;;;;;;;2.00;1.90;;;1.60;87.70;;;;;;5033802;28;20945;-86
2023/02/09 10:42:42;;;;;;;1.90;1.77;;;1.70;88.10;;;;;;5027856;28;20959;-87
2023/02/09 10:45:40;;;;;;;1.70;1.60;;;1.90;87.90;;;;;;5016027;28;20450;-87
2023/02/09 10:48:12;;;;;;;2.90;2.70;;;1.90;86.30;;;;;;5007273;28;20435;-86
2023/02/09 10:50:55;;;;;;;1.83;1.73;;;2.00;86.30;;;;;;5015723;28;20423;-86
2023/02/09 10:53:25;;;;;;;8.30;2.60;;;2.10;86.10;;;;;;5032689;28;20553;-87
2023/02/09 10:55:59;;;;;;;5.17;4.90;;;2.20;85.30;;;;;;4997190;28;20886;-87
2023/02/09 10:58:28;;;;;;;10.70;2.30;;;2.20;84.50;;;;;;5007350;28;20427;-87
2023/02/09 11:01:03;;;;;;;3.73;2.57;;;2.20;84.40;;;;;;5000247;28;20466;-87
2023/02/09 11:03:29;;;;;;;8.73;2.80;;;2.20;84.10;;;;;;5003606;28;20424;-87
2023/02/09 11:06:05;;;;;;;2.13;1.97;;;2.30;84.80;;;;;;4997748;28;20463;-87
2023/02/09 11:08:50;;;;;;;10.63;3.97;;;2.40;84.30;;;;;;4998474;28;20499;-87
2023/02/09 11:11:34;;;;;;;9.17;2.10;;;2.50;83.70;;;;;;4998802;28;20424;-86
2023/02/09 11:14:08;;;;;;;1.50;1.40;;;2.40;83.00;;;;;;5012616;28;20502;-87
2023/02/09 11:16:54;;;;;;;2.60;2.40;;;2.50;83.30;;;;;;5002877;28;20494;-87
2023/02/09 11:19:24;;;;;;;2.10;1.50;;;2.60;83.40;;;;;;4995681;28;20416;-88
2023/02/09 11:22:16;;;;;;;3.37;2.20;;;2.80;83.90;;;;;;4995756;28;20426;-87
2023/02/09 11:25:03;;;;;;;2.90;2.70;;;2.90;82.40;;;;;;4990397;28;20491;-88
2023/02/09 11:27:44;;;;;;;3.67;2.20;;;2.90;82.20;;;;;;4987814;28;20420;-87
2023/02/09 11:30:17;;;;;;;1.80;1.70;;;2.90;82.20;;;;;;4995844;28;20606;-87
2023/02/09 11:32:54;;;;;;;3.30;2.03;;;3.10;82.90;;;;;;4995118;28;20448;-87
2023/02/09 11:35:25;;;;;;;1.27;1.17;;;3.30;82.50;;;;;;4989272;28;20460;-87
2023/02/09 11:38:05;;;;;;;2.00;1.93;;;3.30;82.00;;;;;;5032694;28;20412;-87
2023/02/09 11:40:40;;;;;;;2.77;2.40;;;3.50;82.20;;;;;;5010796;28;20438;-87
2023/02/09 11:43:09;;;;;;;12.73;2.40;;;3.50;81.10;;;;;;5026061;28;20457;-87
2023/02/09 11:45:44;;;;;;;4.10;2.90;;;3.50;80.60;;;;;;5016222;28;20447;-87
2023/02/09 11:48:13;;;;;;;2.20;2.00;;;3.50;81.20;;;;;;5014345;28;20462;-86
2023/02/09 11:50:55;;;;;;;4.17;3.73;;;3.60;81.10;;;;;;4998852;28;20821;-87
2023/02/09 11:53:28;;;;;;;4.13;3.10;;;3.70;81.20;;;;;;4995376;28;20474;-87
2023/02/09 11:56:06;;;;;;;2.40;2.20;;;3.90;80.50;;;;;;5031509;28;20474;-87
2023/02/09 11:58:52;;;;;;;3.30;3.10;;;4.00;80.90;;;;;;5017050;28;20457;-87
2023/02/09 12:01:33;;;;;;;8.83;2.37;;;4.00;80.20;;;;;;5014115;28;21007;-87
2023/02/09 12:04:20;;;;;;;2.13;1.97;;;4.10;80.30;;;;;;5014521;28;20999;-87
2023/02/09 12:06:50;;;;;;;4.63;3.00;;;4.10;80.00;;;;;;5026845;28;21029;-87
2023/02/09 12:09:30;;;;;;;1.60;1.50;;;4.20;80.50;;;;;;5031981;28;20979;-87
2023/02/09 12:12:07;;;;;;;2.33;2.13;;;4.20;79.60;;;;;;5014516;28;20435;-87
2023/02/09 12:14:42;;;;;;;3.10;2.90;;;4.30;80.20;;;;;;5014298;28;20475;-87
2023/02/09 12:17:30;;;;;;;2.33;2.13;;;4.30;79.90;;;;;;5014560;28;20431;-86
2023/02/09 12:19:59;;;;;;;3.27;1.57;;;4.20;79.70;;;;;;5014799;28;20419;-87
2023/02/09 12:22:33;;;;;;;3.63;3.00;;;4.40;79.80;;;;;;5014213;28;20427;-87
2023/02/09 12:25:15;;;;;;;1.10;1.00;;;4.50;79.10;;;;;;5013910;28;20999;-87
2023/02/09 12:28:02;;;;;;;3.07;2.20;;;4.60;79.30;;;;;;5025897;28;20837;-87
2023/02/09 12:30:39;;;;;;;1.87;1.77;;;4.70;78.60;;;;;;5013886;28;20931;-86
2023/02/09 12:33:25;;;;;;;3.10;2.30;;;4.90;78.40;;;;;;5014087;28;20505;-87
2023/02/09 12:36:00;;;;;;;2.90;2.70;;;5.00;78.00;;;;;;5013710;28;20478;-87
2023/02/09 12:38:47;;;;;;;2.00;1.90;;;5.00;77.90;;;;;;5013574;28;20422;-86
2023/02/09 12:41:13;;;;;;;1.93;1.80;;;5.10;77.90;;;;;;5013901;28;20418;-87
2023/02/09 12:43:39;;;;;;;2.60;2.40;;;5.40;78.20;;;;;;5031795;28;20453;-88
2023/02/09 12:46:16;;;;;;;7.10;3.83;;;5.40;77.40;;;;;;5013423;28;20212;-86
2023/02/09 12:48:59;;;;;;;10.87;4.00;;;5.10;76.60;;;;;;5013227;28;20427;-86
2023/02/09 12:51:51;;;;;;;3.13;2.17;;;5.20;77.30;;;;;;5013960;28;20439;-86
2023/02/09 12:54:44;;;;;;;6.03;2.60;;;5.30;76.40;;;;;;5013246;28;20478;-86
2023/02/09 12:57:15;;;;;;;6.20;2.10;;;5.30;76.70;;;;;;5013862;28;20430;-87
2023/02/09 13:00:03;;;;;;;2.37;2.17;;;5.40;76.70;;;;;;5014728;28;20441;-86
2023/02/09 13:02:48;;;;;;;2.87;1.80;;;5.60;76.70;;;;;;5014246;28;20430;-87
2023/02/09 13:05:26;;;;;;;3.67;2.47;;;5.60;76.20;;;;;;5031075;28;20439;-87
2023/02/09 13:08:07;;;;;;;1.80;1.70;;;5.90;76.30;;;;;;5014011;28;20419;-86
2023/02/09 13:10:40;;;;;;;2.50;1.73;;;6.20;76.40;;;;;;5013059;28;20434;-86
2023/02/09 13:13:27;;;;;;;3.23;1.53;;;6.20;75.20;;;;;;5012198;28;20482;-86
2023/02/09 13:16:22;;;;;;;3.50;2.80;;;6.30;75.60;;;;;;5012474;28;20441;-86
2023/02/09 13:19:14;;;;;;;3.57;3.43;;;6.40;75.30;;;;;;5010886;28;20695;-86
2023/02/09 13:22:36;;;;;;;4.30;2.37;;;6.60;74.90;;;;;;5005410;28;20771;-86
2023/02/09 13:25:13;;;;;;;2.90;2.00;;;6.60;75.00;;;;;;4964894;28;20873;-86
2023/02/09 13:27:47;;;;;;;3.60;2.43;;;6.80;74.30;;;;;;4985709;28;20413;-86
2023/02/09 13:30:32;;;;;;;2.03;1.90;;;6.90;73.70;;;;;;5016369;28;20832;-86
2023/02/09 13:33:26;;;;;;;3.70;3.43;;;6.90;73.80;;;;;;5016436;28;21052;-86
2023/02/09 13:36:38;;;;;;;3.50;2.47;;;7.10;73.80;;;;;;5016070;28;20533;-86
2023/02/09 13:43:47;;;;;;;4.23;1.77;;;7.00;72.80;;;;;;4965989;28;20534;-86
2023/02/09 13:50:29;;;;;;;;;;;;;;;;;;;;;